sensor_id;sensor_type;location;lat;lon;timestamp;temperature;humidity
16863;DHT22;52193;48.216;-1.698;2024-03-02T00:01:05;7.80;99.90
16863;DHT22;52193;48.216;-1.698;2024-03-02T00:03:32;7.80;99.90
16863;DHT22;52193;48.216;-1.698;2024-03-02T00:05:59;7.80;99.90
16863;DHT22;52193;48.216;-1.698;2024-03-02T00:08:26;7.70;99.90
16863;DHT22;52193;48.216;-1.698;2024-03-02T00:10:57;7.70;99.90
16863;DHT22;52193;48.216;-1.698;2024-03-02T00:13:24;7.70;99.90
16863;DHT22;52193;48.216;-1.698;2024-03-02T00:15:53;7.70;99.90
16863;DHT22;52193;48.216;-1.698;2024-03-02T00:18:21;7.70;99.90
16863;DHT22;52193;48.216;-1.698;2024-03-02T00:20:53;7.70;99.90
16863;DHT22;52193;48.216;-1.698;2024-03-02T00:23:21;7.70;99.90
16863;DHT22;52193;48.216;-1.698;2024-03-02T00:25:48;7.70;99.90
16863;DHT22;52193;48.216;-1.698;2024-03-02T00:28:19;7.70;99.90
16863;DHT22;52193;48.216;-1.698;2024-03-02T00:30:57;7.70;99.90
16863;DHT22;52193;48.216;-1.698;2024-03-02T00:33:27;7.70;99.90
16863;DHT22;52193;48.216;-1.698;2024-03-02T00:35:55;7.70;99.90
16863;DHT22;52193;48.216;-1.698;2024-03-02T00:38:23;7.70;99.90
16863;DHT22;52193;48.216;-1.698;2024-03-02T00:40:51;7.80;99.90
16863;DHT22;52193;48.216;-1.698;2024-03-02T00:43:43;7.80;99.90
16863;DHT22;52193;48.216;-1.698;2024-03-02T00:46:16;7.80;99.90
16863;DHT22;52193;48.216;-1.698;2024-03-02T00:48:54;7.80;99.90
16863;DHT22;52193;48.216;-1.698;2024-03-02T00:51:24;7.90;99.90
16863;DHT22;52193;48.216;-1.698;2024-03-02T00:53:52;7.90;99.90
16863;DHT22;52193;48.216;-1.698;2024-03-02T00:56:21;7.90;99.90
16863;DHT22;52193;48.216;-1.698;2024-03-02T00:58:49;7.90;99.90
16863;DHT22;52193;48.216;-1.698;2024-03-02T01:01:16;7.90;99.90
16863;DHT22;52193;48.216;-1.698;2024-03-02T01:03:42;7.90;99.90
16863;DHT22;52193;48.216;-1.698;2024-03-02T01:06:09;8.00;99.90
16863;DHT22;52193;48.216;-1.698;2024-03-02T01:08:39;8.00;99.90
16863;DHT22;52193;48.216;-1.698;2024-03-02T01:11:06;8.00;99.90
16863;DHT22;52193;48.216;-1.698;2024-03-02T01:13:33;8.00;99.90
16863;DHT22;52193;48.216;-1.698;2024-03-02T01:16:00;8.00;99.90
16863;DHT22;52193;48.216;-1.698;2024-03-02T01:18:28;8.00;99.90
16863;DHT22;52193;48.216;-1.698;2024-03-02T01:20:55;8.00;99.90
16863;DHT22;52193;48.216;-1.698;2024-03-02T01:23:22;8.00;99.90
16863;DHT22;52193;48.216;-1.698;2024-03-02T01:25:50;8.00;99.90
16863;DHT22;52193;48.216;-1.698;2024-03-02T01:28:18;8.10;99.90
16863;DHT22;52193;48.216;-1.698;2024-03-02T01:30:46;8.00;99.90
16863;DHT22;52193;48.216;-1.698;2024-03-02T01:33:13;8.10;99.90
16863;DHT22;52193;48.216;-1.698;2024-03-02T01:35:40;8.10;99.90
16863;DHT22;52193;48.216;-1.698;2024-03-02T01:38:06;8.10;99.90
16863;DHT22;52193;48.216;-1.698;2024-03-02T01:40:34;8.00;99.90
16863;DHT22;52193;48.216;-1.698;2024-03-02T01:43:03;8.10;99.90
16863;DHT22;52193;48.216;-1.698;2024-03-02T01:45:30;8.10;99.90
16863;DHT22;52193;48.216;-1.698;2024-03-02T01:47:58;8.10;99.90
16863;DHT22;52193;48.216;-1.698;2024-03-02T01:50:27;8.10;99.90
16863;DHT22;52193;48.216;-1.698;2024-03-02T01:52:55;8.10;99.90
16863;DHT22;52193;48.216;-1.698;2024-03-02T01:55:22;8.10;99.90
16863;DHT22;52193;48.216;-1.698;2024-03-02T01:57:49;8.10;99.90
16863;DHT22;52193;48.216;-1.698;2024-03-02T02:00:19;8.10;99.90
16863;DHT22;52193;48.216;-1.698;2024-03-02T02:02:47;8.10;99.90
16863;DHT22;52193;48.216;-1.698;2024-03-02T02:05:14;8.10;99.90
16863;DHT22;52193;48.216;-1.698;2024-03-02T02:07:41;8.10;99.90
16863;DHT22;52193;48.216;-1.698;2024-03-02T02:10:09;8.10;99.90
16863;DHT22;52193;48.216;-1.698;2024-03-02T02:12:36;8.10;99.90
16863;DHT22;52193;48.216;-1.698;2024-03-02T02:15:04;8.10;99.90
16863;DHT22;52193;48.216;-1.698;2024-03-02T02:17:32;8.10;99.90
16863;DHT22;52193;48.216;-1.698;2024-03-02T02:19:59;8.10;99.90
16863;DHT22;52193;48.216;-1.698;2024-03-02T02:22:27;8.20;99.90
16863;DHT22;52193;48.216;-1.698;2024-03-02T02:24:54;8.20;99.90
16863;DHT22;52193;48.216;-1.698;2024-03-02T02:27:21;8.20;99.90
16863;DHT22;52193;48.216;-1.698;2024-03-02T02:29:48;8.30;99.90
16863;DHT22;52193;48.216;-1.698;2024-03-02T02:32:15;8.30;99.90
16863;DHT22;52193;48.216;-1.698;2024-03-02T02:34:42;8.30;99.90
16863;DHT22;52193;48.216;-1.698;2024-03-02T02:37:09;8.30;99.90
16863;DHT22;52193;48.216;-1.698;2024-03-02T02:39:37;8.30;99.90
16863;DHT22;52193;48.216;-1.698;2024-03-02T02:42:05;8.30;99.90
16863;DHT22;52193;48.216;-1.698;2024-03-02T02:44:32;8.20;99.90
16863;DHT22;52193;48.216;-1.698;2024-03-02T02:46:59;8.20;99.90
16863;DHT22;52193;48.216;-1.698;2024-03-02T02:49:26;8.20;99.90
16863;DHT22;52193;48.216;-1.698;2024-03-02T02:51:53;8.20;99.90
16863;DHT22;52193;48.216;-1.698;2024-03-02T02:54:20;8.20;99.90
16863;DHT22;52193;48.216;-1.698;2024-03-02T02:56:48;8.10;99.90
16863;DHT22;52193;48.216;-1.698;2024-03-02T02:59:15;8.10;99.90
16863;DHT22;52193;48.216;-1.698;2024-03-02T03:01:42;8.10;99.90
16863;DHT22;52193;48.216;-1.698;2024-03-02T03:04:09;8.10;99.90
16863;DHT22;52193;48.216;-1.698;2024-03-02T03:06:36;8.10;99.90
16863;DHT22;52193;48.216;-1.698;2024-03-02T03:09:03;8.10;99.90
16863;DHT22;52193;48.216;-1.698;2024-03-02T03:11:30;8.10;99.90
16863;DHT22;52193;48.216;-1.698;2024-03-02T03:13:58;8.10;99.90
16863;DHT22;52193;48.216;-1.698;2024-03-02T03:16:26;8.10;99.90
16863;DHT22;52193;48.216;-1.698;2024-03-02T03:18:53;8.10;99.90
16863;DHT22;52193;48.216;-1.698;2024-03-02T03:21:20;8.10;99.90
16863;DHT22;52193;48.216;-1.698;2024-03-02T03:23:47;8.20;99.90
16863;DHT22;52193;48.216;-1.698;2024-03-02T03:26:14;8.20;99.90
16863;DHT22;52193;48.216;-1.698;2024-03-02T03:28:40;8.20;99.90
16863;DHT22;52193;48.216;-1.698;2024-03-02T03:31:09;8.20;99.90
16863;DHT22;52193;48.216;-1.698;2024-03-02T03:33:36;8.20;99.90
16863;DHT22;52193;48.216;-1.698;2024-03-02T03:36:03;8.20;99.90
16863;DHT22;52193;48.216;-1.698;2024-03-02T03:38:30;8.30;99.90
16863;DHT22;52193;48.216;-1.698;2024-03-02T03:40:57;8.30;99.90
16863;DHT22;52193;48.216;-1.698;2024-03-02T03:43:24;8.30;99.90
16863;DHT22;52193;48.216;-1.698;2024-03-02T03:45:51;8.30;99.90
16863;DHT22;52193;48.216;-1.698;2024-03-02T03:48:19;8.30;99.90
16863;DHT22;52193;48.216;-1.698;2024-03-02T03:50:46;8.30;99.90
16863;DHT22;52193;48.216;-1.698;2024-03-02T03:53:13;8.30;99.90
16863;DHT22;52193;48.216;-1.698;2024-03-02T03:55:41;8.30;99.90
16863;DHT22;52193;48.216;-1.698;2024-03-02T03:58:08;8.20;99.90
16863;DHT22;52193;48.216;-1.698;2024-03-02T04:00:34;8.10;99.90
16863;DHT22;52193;48.216;-1.698;2024-03-02T04:03:01;8.00;99.90
16863;DHT22;52193;48.216;-1.698;2024-03-02T04:05:30;8.00;99.90
16863;DHT22;52193;48.216;-1.698;2024-03-02T04:07:56;7.90;99.90
16863;DHT22;52193;48.216;-1.698;2024-03-02T04:10:23;7.90;99.90
16863;DHT22;52193;48.216;-1.698;2024-03-02T04:12:51;7.80;99.90
16863;DHT22;52193;48.216;-1.698;2024-03-02T04:15:17;7.70;99.90
16863;DHT22;52193;48.216;-1.698;2024-03-02T04:17:45;7.70;99.90
16863;DHT22;52193;48.216;-1.698;2024-03-02T04:20:12;7.60;99.90
16863;DHT22;52193;48.216;-1.698;2024-03-02T04:22:40;7.60;99.90
16863;DHT22;52193;48.216;-1.698;2024-03-02T04:25:08;7.60;99.90
16863;DHT22;52193;48.216;-1.698;2024-03-02T04:27:35;7.60;99.90
16863;DHT22;52193;48.216;-1.698;2024-03-02T04:30:03;7.60;99.90
16863;DHT22;52193;48.216;-1.698;2024-03-02T04:32:30;7.50;99.90
16863;DHT22;52193;48.216;-1.698;2024-03-02T04:34:57;7.50;99.90
16863;DHT22;52193;48.216;-1.698;2024-03-02T04:37:24;7.50;99.90
16863;DHT22;52193;48.216;-1.698;2024-03-02T04:39:52;7.50;99.90
16863;DHT22;52193;48.216;-1.698;2024-03-02T04:42:19;7.50;99.90
16863;DHT22;52193;48.216;-1.698;2024-03-02T04:44:46;7.40;99.90
16863;DHT22;52193;48.216;-1.698;2024-03-02T04:47:13;7.40;99.90
16863;DHT22;52193;48.216;-1.698;2024-03-02T04:49:39;7.40;99.90
16863;DHT22;52193;48.216;-1.698;2024-03-02T04:52:06;7.40;99.90
16863;DHT22;52193;48.216;-1.698;2024-03-02T04:54:33;7.40;99.90
16863;DHT22;52193;48.216;-1.698;2024-03-02T04:57:22;7.40;99.90
16863;DHT22;52193;48.216;-1.698;2024-03-02T04:59:49;7.40;99.90
16863;DHT22;52193;48.216;-1.698;2024-03-02T05:02:16;7.40;99.90
16863;DHT22;52193;48.216;-1.698;2024-03-02T05:04:43;7.40;99.90
16863;DHT22;52193;48.216;-1.698;2024-03-02T05:07:09;7.50;99.90
16863;DHT22;52193;48.216;-1.698;2024-03-02T05:09:36;7.50;99.90
16863;DHT22;52193;48.216;-1.698;2024-03-02T05:12:03;7.50;99.90
16863;DHT22;52193;48.216;-1.698;2024-03-02T05:14:50;7.50;99.90
16863;DHT22;52193;48.216;-1.698;2024-03-02T05:17:17;7.60;99.90
16863;DHT22;52193;48.216;-1.698;2024-03-02T05:19:43;7.60;99.90
16863;DHT22;52193;48.216;-1.698;2024-03-02T05:22:10;7.60;99.90
16863;DHT22;52193;48.216;-1.698;2024-03-02T05:24:37;7.60;99.90
16863;DHT22;52193;48.216;-1.698;2024-03-02T05:27:04;7.60;99.90
16863;DHT22;52193;48.216;-1.698;2024-03-02T05:29:32;7.50;99.90
16863;DHT22;52193;48.216;-1.698;2024-03-02T05:32:01;7.50;99.90
16863;DHT22;52193;48.216;-1.698;2024-03-02T05:34:28;7.50;99.90
16863;DHT22;52193;48.216;-1.698;2024-03-02T05:36:54;7.50;99.90
16863;DHT22;52193;48.216;-1.698;2024-03-02T05:39:21;7.40;99.90
16863;DHT22;52193;48.216;-1.698;2024-03-02T05:41:48;7.40;99.90
16863;DHT22;52193;48.216;-1.698;2024-03-02T05:44:15;7.40;99.90
16863;DHT22;52193;48.216;-1.698;2024-03-02T05:46:42;7.40;99.90
16863;DHT22;52193;48.216;-1.698;2024-03-02T05:49:10;7.40;99.90
16863;DHT22;52193;48.216;-1.698;2024-03-02T05:51:37;7.30;99.90
16863;DHT22;52193;48.216;-1.698;2024-03-02T05:54:04;7.40;99.90
16863;DHT22;52193;48.216;-1.698;2024-03-02T05:56:31;7.40;99.90
16863;DHT22;52193;48.216;-1.698;2024-03-02T05:58:58;7.40;99.90
16863;DHT22;52193;48.216;-1.698;2024-03-02T06:01:38;7.40;99.90
16863;DHT22;52193;48.216;-1.698;2024-03-02T06:04:04;7.40;99.90
16863;DHT22;52193;48.216;-1.698;2024-03-02T06:06:33;7.40;99.90
16863;DHT22;52193;48.216;-1.698;2024-03-02T06:09:00;7.40;99.90
16863;DHT22;52193;48.216;-1.698;2024-03-02T06:11:28;7.40;99.90
16863;DHT22;52193;48.216;-1.698;2024-03-02T06:13:55;7.40;99.90
16863;DHT22;52193;48.216;-1.698;2024-03-02T06:16:22;7.40;99.90
16863;DHT22;52193;48.216;-1.698;2024-03-02T06:18:48;7.40;99.90
16863;DHT22;52193;48.216;-1.698;2024-03-02T06:21:15;7.40;99.90
16863;DHT22;52193;48.216;-1.698;2024-03-02T06:23:44;7.40;99.90
16863;DHT22;52193;48.216;-1.698;2024-03-02T06:26:11;7.40;99.90
16863;DHT22;52193;48.216;-1.698;2024-03-02T06:28:38;7.40;99.90
16863;DHT22;52193;48.216;-1.698;2024-03-02T06:31:05;7.40;99.90
16863;DHT22;52193;48.216;-1.698;2024-03-02T06:33:32;7.50;99.90
16863;DHT22;52193;48.216;-1.698;2024-03-02T06:35:59;7.50;99.90
16863;DHT22;52193;48.216;-1.698;2024-03-02T06:38:25;7.50;99.90
16863;DHT22;52193;48.216;-1.698;2024-03-02T06:40:54;7.50;99.90
16863;DHT22;52193;48.216;-1.698;2024-03-02T06:43:21;7.60;99.90
16863;DHT22;52193;48.216;-1.698;2024-03-02T06:45:49;7.60;99.90
16863;DHT22;52193;48.216;-1.698;2024-03-02T06:48:15;7.60;99.90
16863;DHT22;52193;48.216;-1.698;2024-03-02T06:50:45;7.60;99.90
16863;DHT22;52193;48.216;-1.698;2024-03-02T06:53:12;7.60;99.90
16863;DHT22;52193;48.216;-1.698;2024-03-02T06:55:39;7.70;99.90
16863;DHT22;52193;48.216;-1.698;2024-03-02T06:58:07;7.70;99.90
16863;DHT22;52193;48.216;-1.698;2024-03-02T07:00:34;7.70;99.90
16863;DHT22;52193;48.216;-1.698;2024-03-02T07:03:01;7.70;99.90
16863;DHT22;52193;48.216;-1.698;2024-03-02T07:05:27;7.70;99.90
16863;DHT22;52193;48.216;-1.698;2024-03-02T07:07:53;7.70;99.90
16863;DHT22;52193;48.216;-1.698;2024-03-02T07:10:20;7.80;99.90
16863;DHT22;52193;48.216;-1.698;2024-03-02T07:12:47;7.80;99.90
16863;DHT22;52193;48.216;-1.698;2024-03-02T07:15:15;7.70;99.90
16863;DHT22;52193;48.216;-1.698;2024-03-02T07:18:03;7.80;99.90
16863;DHT22;52193;48.216;-1.698;2024-03-02T07:20:30;7.70;99.90
16863;DHT22;52193;48.216;-1.698;2024-03-02T07:22:57;7.70;99.90
16863;DHT22;52193;48.216;-1.698;2024-03-02T07:25:24;7.70;99.90
16863;DHT22;52193;48.216;-1.698;2024-03-02T07:27:51;7.70;99.90
16863;DHT22;52193;48.216;-1.698;2024-03-02T07:30:19;7.70;99.90
16863;DHT22;52193;48.216;-1.698;2024-03-02T07:32:49;7.70;99.90
16863;DHT22;52193;48.216;-1.698;2024-03-02T07:35:16;7.70;99.90
16863;DHT22;52193;48.216;-1.698;2024-03-02T07:37:43;7.70;99.90
16863;DHT22;52193;48.216;-1.698;2024-03-02T07:40:11;7.70;99.90
16863;DHT22;52193;48.216;-1.698;2024-03-02T07:42:38;7.70;99.90
16863;DHT22;52193;48.216;-1.698;2024-03-02T07:45:06;7.70;99.90
16863;DHT22;52193;48.216;-1.698;2024-03-02T07:47:35;7.70;99.90
16863;DHT22;52193;48.216;-1.698;2024-03-02T07:50:02;7.70;99.90
16863;DHT22;52193;48.216;-1.698;2024-03-02T07:52:31;7.70;99.90
16863;DHT22;52193;48.216;-1.698;2024-03-02T07:54:58;7.70;99.90
16863;DHT22;52193;48.216;-1.698;2024-03-02T07:57:25;7.70;99.90
16863;DHT22;52193;48.216;-1.698;2024-03-02T07:59:52;7.70;99.90
16863;DHT22;52193;48.216;-1.698;2024-03-02T08:02:19;7.70;99.90
16863;DHT22;52193;48.216;-1.698;2024-03-02T08:04:47;7.70;99.90
16863;DHT22;52193;48.216;-1.698;2024-03-02T08:07:15;7.70;99.90
16863;DHT22;52193;48.216;-1.698;2024-03-02T08:09:42;7.80;99.90
16863;DHT22;52193;48.216;-1.698;2024-03-02T08:12:09;7.80;99.90
16863;DHT22;52193;48.216;-1.698;2024-03-02T08:14:36;7.80;99.90
16863;DHT22;52193;48.216;-1.698;2024-03-02T08:17:03;7.80;99.90
16863;DHT22;52193;48.216;-1.698;2024-03-02T08:19:35;7.80;99.90
16863;DHT22;52193;48.216;-1.698;2024-03-02T08:22:03;7.80;99.90
16863;DHT22;52193;48.216;-1.698;2024-03-02T08:24:30;7.80;99.90
16863;DHT22;52193;48.216;-1.698;2024-03-02T08:26:58;7.80;99.90
16863;DHT22;52193;48.216;-1.698;2024-03-02T08:29:25;7.80;99.90
16863;DHT22;52193;48.216;-1.698;2024-03-02T08:31:53;7.80;99.90
16863;DHT22;52193;48.216;-1.698;2024-03-02T08:34:20;7.80;99.90
16863;DHT22;52193;48.216;-1.698;2024-03-02T08:36:47;7.80;99.90
16863;DHT22;52193;48.216;-1.698;2024-03-02T08:39:15;7.80;99.90
16863;DHT22;52193;48.216;-1.698;2024-03-02T08:41:43;7.80;99.90
16863;DHT22;52193;48.216;-1.698;2024-03-02T08:44:11;7.90;99.90
16863;DHT22;52193;48.216;-1.698;2024-03-02T08:46:38;7.90;99.90
16863;DHT22;52193;48.216;-1.698;2024-03-02T08:49:05;7.90;99.90
16863;DHT22;52193;48.216;-1.698;2024-03-02T08:51:33;8.00;99.90
16863;DHT22;52193;48.216;-1.698;2024-03-02T08:54:00;8.00;99.90
16863;DHT22;52193;48.216;-1.698;2024-03-02T08:56:28;8.00;99.90
16863;DHT22;52193;48.216;-1.698;2024-03-02T08:58:55;8.00;99.90
16863;DHT22;52193;48.216;-1.698;2024-03-02T09:01:22;8.10;99.90
16863;DHT22;52193;48.216;-1.698;2024-03-02T09:03:49;8.10;99.90
16863;DHT22;52193;48.216;-1.698;2024-03-02T09:06:15;8.10;99.90
16863;DHT22;52193;48.216;-1.698;2024-03-02T09:08:43;8.10;99.90
16863;DHT22;52193;48.216;-1.698;2024-03-02T09:11:10;8.20;99.90
16863;DHT22;52193;48.216;-1.698;2024-03-02T09:13:39;8.20;99.90
16863;DHT22;52193;48.216;-1.698;2024-03-02T09:16:06;8.20;99.90
16863;DHT22;52193;48.216;-1.698;2024-03-02T09:18:36;8.20;99.90
16863;DHT22;52193;48.216;-1.698;2024-03-02T09:21:04;8.20;99.90
16863;DHT22;52193;48.216;-1.698;2024-03-02T09:23:31;8.20;99.90
16863;DHT22;52193;48.216;-1.698;2024-03-02T09:25:58;8.30;99.90
16863;DHT22;52193;48.216;-1.698;2024-03-02T09:28:25;8.30;99.90
16863;DHT22;52193;48.216;-1.698;2024-03-02T09:30:53;8.30;99.90
16863;DHT22;52193;48.216;-1.698;2024-03-02T09:33:20;8.30;99.90
16863;DHT22;52193;48.216;-1.698;2024-03-02T09:35:47;8.40;99.90
16863;DHT22;52193;48.216;-1.698;2024-03-02T09:38:14;8.40;99.90
16863;DHT22;52193;48.216;-1.698;2024-03-02T09:40:41;8.40;99.90
16863;DHT22;52193;48.216;-1.698;2024-03-02T09:43:09;8.50;99.90
16863;DHT22;52193;48.216;-1.698;2024-03-02T09:45:36;8.50;99.90
16863;DHT22;52193;48.216;-1.698;2024-03-02T09:48:05;8.60;99.90
16863;DHT22;52193;48.216;-1.698;2024-03-02T09:50:33;8.60;99.90
16863;DHT22;52193;48.216;-1.698;2024-03-02T09:53:00;8.60;99.90
16863;DHT22;52193;48.216;-1.698;2024-03-02T09:55:27;8.70;99.90
16863;DHT22;52193;48.216;-1.698;2024-03-02T09:57:54;8.70;99.90
16863;DHT22;52193;48.216;-1.698;2024-03-02T10:00:21;8.80;99.90
16863;DHT22;52193;48.216;-1.698;2024-03-02T10:02:48;8.80;99.90
16863;DHT22;52193;48.216;-1.698;2024-03-02T10:05:25;8.90;99.90
16863;DHT22;52193;48.216;-1.698;2024-03-02T10:07:59;8.90;99.90
16863;DHT22;52193;48.216;-1.698;2024-03-02T10:10:35;9.00;99.90
16863;DHT22;52193;48.216;-1.698;2024-03-02T10:13:05;9.00;99.90
16863;DHT22;52193;48.216;-1.698;2024-03-02T10:15:33;9.10;99.90
16863;DHT22;52193;48.216;-1.698;2024-03-02T10:18:00;9.10;99.90
16863;DHT22;52193;48.216;-1.698;2024-03-02T10:20:28;9.20;99.90
16863;DHT22;52193;48.216;-1.698;2024-03-02T10:22:55;9.20;99.90
16863;DHT22;52193;48.216;-1.698;2024-03-02T10:25:29;9.30;99.90
16863;DHT22;52193;48.216;-1.698;2024-03-02T10:27:58;9.30;99.90
16863;DHT22;52193;48.216;-1.698;2024-03-02T10:30:25;9.40;99.90
16863;DHT22;52193;48.216;-1.698;2024-03-02T10:32:53;9.50;99.90
16863;DHT22;52193;48.216;-1.698;2024-03-02T10:35:21;9.60;99.90
16863;DHT22;52193;48.216;-1.698;2024-03-02T10:37:50;9.70;99.90
16863;DHT22;52193;48.216;-1.698;2024-03-02T10:40:18;9.70;99.90
16863;DHT22;52193;48.216;-1.698;2024-03-02T10:42:45;9.70;99.90
16863;DHT22;52193;48.216;-1.698;2024-03-02T10:45:14;9.80;99.90
16863;DHT22;52193;48.216;-1.698;2024-03-02T10:47:42;9.90;99.90
16863;DHT22;52193;48.216;-1.698;2024-03-02T10:50:09;10.00;99.90
16863;DHT22;52193;48.216;-1.698;2024-03-02T10:52:37;10.10;99.90
16863;DHT22;52193;48.216;-1.698;2024-03-02T10:55:07;10.10;99.90
16863;DHT22;52193;48.216;-1.698;2024-03-02T10:57:41;10.20;99.90
16863;DHT22;52193;48.216;-1.698;2024-03-02T11:00:12;10.20;99.90
16863;DHT22;52193;48.216;-1.698;2024-03-02T11:02:45;10.20;99.90
16863;DHT22;52193;48.216;-1.698;2024-03-02T11:05:16;10.30;99.90
16863;DHT22;52193;48.216;-1.698;2024-03-02T11:07:45;10.30;99.90
16863;DHT22;52193;48.216;-1.698;2024-03-02T11:10:15;10.30;99.90
16863;DHT22;52193;48.216;-1.698;2024-03-02T11:12:50;10.20;99.90
16863;DHT22;52193;48.216;-1.698;2024-03-02T11:15:21;10.30;99.90
16863;DHT22;52193;48.216;-1.698;2024-03-02T11:17:51;10.30;99.90
16863;DHT22;52193;48.216;-1.698;2024-03-02T11:20:18;10.40;99.90
16863;DHT22;52193;48.216;-1.698;2024-03-02T11:22:46;10.40;99.90
16863;DHT22;52193;48.216;-1.698;2024-03-02T11:25:24;10.40;99.90
16863;DHT22;52193;48.216;-1.698;2024-03-02T11:28:05;10.40;99.90
16863;DHT22;52193;48.216;-1.698;2024-03-02T11:30:49;10.40;99.90
16863;DHT22;52193;48.216;-1.698;2024-03-02T11:33:25;10.40;99.90
16863;DHT22;52193;48.216;-1.698;2024-03-02T11:35:55;10.50;99.90
16863;DHT22;52193;48.216;-1.698;2024-03-02T11:38:24;10.60;99.90
16863;DHT22;52193;48.216;-1.698;2024-03-02T11:40:55;10.80;99.90
16863;DHT22;52193;48.216;-1.698;2024-03-02T11:43:22;10.90;99.90
16863;DHT22;52193;48.216;-1.698;2024-03-02T11:45:56;11.00;99.90
16863;DHT22;52193;48.216;-1.698;2024-03-02T11:48:25;11.10;99.90
16863;DHT22;52193;48.216;-1.698;2024-03-02T11:50:52;11.20;99.90
16863;DHT22;52193;48.216;-1.698;2024-03-02T11:53:20;11.30;99.90
16863;DHT22;52193;48.216;-1.698;2024-03-02T11:55:47;11.40;99.90
16863;DHT22;52193;48.216;-1.698;2024-03-02T11:58:17;11.40;99.90
16863;DHT22;52193;48.216;-1.698;2024-03-02T12:00:46;11.50;99.90
16863;DHT22;52193;48.216;-1.698;2024-03-02T12:03:14;11.60;99.90
16863;DHT22;52193;48.216;-1.698;2024-03-02T12:05:42;11.60;99.90
16863;DHT22;52193;48.216;-1.698;2024-03-02T12:08:10;11.60;99.90
16863;DHT22;52193;48.216;-1.698;2024-03-02T12:10:37;11.60;99.90
16863;DHT22;52193;48.216;-1.698;2024-03-02T12:13:05;11.60;99.90
16863;DHT22;52193;48.216;-1.698;2024-03-02T12:15:35;11.70;99.90
16863;DHT22;52193;48.216;-1.698;2024-03-02T12:18:03;11.70;99.90
16863;DHT22;52193;48.216;-1.698;2024-03-02T12:20:31;11.80;99.90
16863;DHT22;52193;48.216;-1.698;2024-03-02T12:22:59;11.90;99.90
16863;DHT22;52193;48.216;-1.698;2024-03-02T12:25:27;11.90;99.90
16863;DHT22;52193;48.216;-1.698;2024-03-02T12:27:55;11.90;99.90
16863;DHT22;52193;48.216;-1.698;2024-03-02T12:30:23;11.90;99.90
16863;DHT22;52193;48.216;-1.698;2024-03-02T12:32:51;11.90;99.90
16863;DHT22;52193;48.216;-1.698;2024-03-02T12:35:18;12.00;99.90
16863;DHT22;52193;48.216;-1.698;2024-03-02T12:37:47;12.00;99.90
16863;DHT22;52193;48.216;-1.698;2024-03-02T12:40:16;12.10;99.90
16863;DHT22;52193;48.216;-1.698;2024-03-02T12:42:44;12.20;99.90
16863;DHT22;52193;48.216;-1.698;2024-03-02T12:45:11;12.20;99.90
16863;DHT22;52193;48.216;-1.698;2024-03-02T12:47:40;12.20;99.90
16863;DHT22;52193;48.216;-1.698;2024-03-02T12:50:09;12.20;99.90
16863;DHT22;52193;48.216;-1.698;2024-03-02T12:52:36;12.20;99.90
16863;DHT22;52193;48.216;-1.698;2024-03-02T12:55:05;12.20;99.90
16863;DHT22;52193;48.216;-1.698;2024-03-02T12:57:33;12.30;99.90
16863;DHT22;52193;48.216;-1.698;2024-03-02T13:00:03;12.30;99.90
16863;DHT22;52193;48.216;-1.698;2024-03-02T13:02:35;12.40;99.90
16863;DHT22;52193;48.216;-1.698;2024-03-02T13:05:02;12.50;99.90
16863;DHT22;52193;48.216;-1.698;2024-03-02T13:07:31;12.60;99.90
16863;DHT22;52193;48.216;-1.698;2024-03-02T13:09:59;12.80;99.90
16863;DHT22;52193;48.216;-1.698;2024-03-02T13:12:27;12.90;99.90
16863;DHT22;52193;48.216;-1.698;2024-03-02T13:14:54;13.00;99.90
16863;DHT22;52193;48.216;-1.698;2024-03-02T13:17:21;13.10;99.90
16863;DHT22;52193;48.216;-1.698;2024-03-02T13:19:52;13.20;99.90
16863;DHT22;52193;48.216;-1.698;2024-03-02T13:22:19;13.40;99.90
16863;DHT22;52193;48.216;-1.698;2024-03-02T13:24:48;13.60;99.90
16863;DHT22;52193;48.216;-1.698;2024-03-02T13:27:15;13.70;99.90
16863;DHT22;52193;48.216;-1.698;2024-03-02T13:29:45;13.90;99.90
16863;DHT22;52193;48.216;-1.698;2024-03-02T13:32:12;14.00;99.90
16863;DHT22;52193;48.216;-1.698;2024-03-02T13:34:39;14.10;99.90
16863;DHT22;52193;48.216;-1.698;2024-03-02T13:37:06;14.10;99.90
16863;DHT22;52193;48.216;-1.698;2024-03-02T13:39:33;14.10;99.90
16863;DHT22;52193;48.216;-1.698;2024-03-02T13:42:07;14.00;99.90
16863;DHT22;52193;48.216;-1.698;2024-03-02T13:44:34;14.00;99.90
16863;DHT22;52193;48.216;-1.698;2024-03-02T13:47:02;14.00;99.90
16863;DHT22;52193;48.216;-1.698;2024-03-02T13:49:29;14.00;99.90
16863;DHT22;52193;48.216;-1.698;2024-03-02T13:52:02;14.00;99.90
16863;DHT22;52193;48.216;-1.698;2024-03-02T13:54:37;14.10;99.90
16863;DHT22;52193;48.216;-1.698;2024-03-02T13:57:04;14.10;99.90
16863;DHT22;52193;48.216;-1.698;2024-03-02T13:59:33;14.10;99.90
16863;DHT22;52193;48.216;-1.698;2024-03-02T14:02:00;14.20;99.90
16863;DHT22;52193;48.216;-1.698;2024-03-02T14:04:27;14.30;99.90
16863;DHT22;52193;48.216;-1.698;2024-03-02T14:06:53;14.40;99.90
16863;DHT22;52193;48.216;-1.698;2024-03-02T14:09:21;14.60;99.90
16863;DHT22;52193;48.216;-1.698;2024-03-02T14:11:49;14.70;99.90
16863;DHT22;52193;48.216;-1.698;2024-03-02T14:14:16;14.80;99.90
16863;DHT22;52193;48.216;-1.698;2024-03-02T14:16:45;14.80;99.90
16863;DHT22;52193;48.216;-1.698;2024-03-02T14:19:12;14.70;99.90
16863;DHT22;52193;48.216;-1.698;2024-03-02T14:21:39;14.60;99.90
16863;DHT22;52193;48.216;-1.698;2024-03-02T14:24:06;14.50;99.90
16863;DHT22;52193;48.216;-1.698;2024-03-02T14:26:34;14.40;99.90
16863;DHT22;52193;48.216;-1.698;2024-03-02T14:29:02;14.30;99.90
16863;DHT22;52193;48.216;-1.698;2024-03-02T14:31:29;14.10;99.90
16863;DHT22;52193;48.216;-1.698;2024-03-02T14:33:58;14.10;99.90
16863;DHT22;52193;48.216;-1.698;2024-03-02T14:36:25;14.20;99.90
16863;DHT22;52193;48.216;-1.698;2024-03-02T14:38:53;14.40;99.90
16863;DHT22;52193;48.216;-1.698;2024-03-02T14:41:20;14.60;99.90
16863;DHT22;52193;48.216;-1.698;2024-03-02T14:43:47;15.10;99.90
16863;DHT22;52193;48.216;-1.698;2024-03-02T14:46:15;15.40;99.90
16863;DHT22;52193;48.216;-1.698;2024-03-02T14:48:43;15.60;99.90
16863;DHT22;52193;48.216;-1.698;2024-03-02T14:51:12;15.80;99.90
16863;DHT22;52193;48.216;-1.698;2024-03-02T14:53:39;16.00;99.90
16863;DHT22;52193;48.216;-1.698;2024-03-02T14:56:06;16.20;99.90
16863;DHT22;52193;48.216;-1.698;2024-03-02T14:58:33;16.30;99.90
16863;DHT22;52193;48.216;-1.698;2024-03-02T15:01:01;16.20;99.90
16863;DHT22;52193;48.216;-1.698;2024-03-02T15:03:28;16.40;99.90
16863;DHT22;52193;48.216;-1.698;2024-03-02T15:05:54;16.40;99.90
16863;DHT22;52193;48.216;-1.698;2024-03-02T15:08:23;16.40;99.90
16863;DHT22;52193;48.216;-1.698;2024-03-02T15:10:50;16.20;99.90
16863;DHT22;52193;48.216;-1.698;2024-03-02T15:13:17;16.00;99.90
16863;DHT22;52193;48.216;-1.698;2024-03-02T15:15:44;15.90;99.90
16863;DHT22;52193;48.216;-1.698;2024-03-02T15:18:11;15.80;99.90
16863;DHT22;52193;48.216;-1.698;2024-03-02T15:20:38;15.80;99.90
16863;DHT22;52193;48.216;-1.698;2024-03-02T15:23:06;15.70;99.90
16863;DHT22;52193;48.216;-1.698;2024-03-02T15:25:34;15.90;99.90
16863;DHT22;52193;48.216;-1.698;2024-03-02T15:28:01;16.10;99.90
16863;DHT22;52193;48.216;-1.698;2024-03-02T15:30:28;16.90;99.90
16863;DHT22;52193;48.216;-1.698;2024-03-02T15:32:55;18.00;99.90